Terminal Aerodrome Forecast
Issued by NWS Medford, OR

Home | Current Version | Previous Version | Text Only | Print | Product List | Glossary On
Versions: 1 2 3 4 5 6 7 8 9 10 11 12 13 14 15 16 17 18 19 20 21 22 23 24 25 26
219
FTUS46 KMFR 161720
TAFMFR
TAF
KMFR 161720Z 1618/1718 00000KT 1/2SM FZFG OVC002
     FM162000 VRB03KT P6SM BKN120
     FM170700 00000KT P6SM OVC100
     FM171000 00000KT 1/2SM FG OVC003=

USA.gov is the U.S. government's official web portal to all federal, state and local government web resources and services.